Time;durP1;ratioP1;P1;durP2;ratioP2;P2;SDS_P1;SDS_P2;PMS_P1;PMS_P2;Temp;Humidity;BMP_temperature;BMP_pressure;BME280_temperature;BME280_humidity;BME280_pressure;Samples;Min_cycle;Max_cycle;Signal;HPM_P1;HPM_P2
2021/09/24 00:02:20;;;;;;;6.40;1.23;;;;;21.90;101573.00;;;;5057679;28;20196;-82
2021/09/24 00:04:48;;;;;;;4.40;0.70;;;;;21.90;101579.00;;;;5066831;28;20688;-82
2021/09/24 00:07:15;;;;;;;5.00;1.23;;;;;21.90;101578.00;;;;5055541;28;20199;-83
2021/09/24 00:09:42;;;;;;;1.30;0.55;;;;;21.80;101569.00;;;;5049873;28;20198;-82
2021/09/24 00:12:10;;;;;;;2.33;0.98;;;;;21.80;101564.00;;;;5055016;28;20195;-82
2021/09/24 00:14:37;;;;;;;4.50;1.67;;;;;21.80;101565.00;;;;5057264;28;22091;-82
2021/09/24 00:17:07;;;;;;;1.50;0.70;;;;;21.80;101564.00;;;;5051397;28;20190;-82
2021/09/24 00:19:34;;;;;;;4.85;1.00;;;;;21.80;101562.00;;;;5049939;28;20215;-82
2021/09/24 00:22:01;;;;;;;4.75;0.70;;;;;21.80;101559.00;;;;5062851;28;20192;-82
2021/09/24 00:24:28;;;;;;;2.13;0.90;;;;;21.80;101562.00;;;;5056554;28;20207;-82
2021/09/24 00:26:56;;;;;;;1.50;0.75;;;;;21.80;101562.00;;;;5061196;28;21106;-82
2021/09/24 00:29:23;;;;;;;5.70;0.80;;;;;21.70;101559.00;;;;5051683;28;20196;-82
2021/09/24 00:31:50;;;;;;;1.77;0.68;;;;;21.70;101567.00;;;;5050840;28;20197;-82
2021/09/24 00:34:19;;;;;;;1.75;0.70;;;;;21.70;101561.00;;;;5052114;28;20230;-82
2021/09/24 00:36:46;;;;;;;2.55;0.88;;;;;21.70;101553.00;;;;5050261;28;20692;-82
2021/09/24 00:39:13;;;;;;;2.53;0.95;;;;;21.70;101552.00;;;;5056407;28;20210;-83
2021/09/24 00:41:41;;;;;;;2.00;0.60;;;;;21.70;101550.00;;;;5056735;28;20230;-82
2021/09/24 00:44:08;;;;;;;2.60;0.82;;;;;21.70;101555.00;;;;5052386;28;20199;-83
2021/09/24 00:46:35;;;;;;;3.38;1.27;;;;;21.70;101544.00;;;;5058335;28;20215;-83
2021/09/24 00:49:03;;;;;;;4.97;0.90;;;;;21.60;101542.00;;;;5051644;28;20196;-82
2021/09/24 00:51:31;;;;;;;1.95;1.10;;;;;21.60;101542.00;;;;5050031;28;20195;-82
2021/09/24 00:53:59;;;;;;;2.45;0.70;;;;;21.60;101536.00;;;;5053119;28;20226;-82
2021/09/24 00:56:27;;;;;;;1.40;0.82;;;;;21.60;101536.00;;;;5057959;28;20210;-83
2021/09/24 00:58:54;;;;;;;2.92;0.90;;;;;21.60;101537.00;;;;5052400;28;20203;-83
2021/09/24 01:01:22;;;;;;;2.80;1.02;;;;;21.60;101537.00;;;;5064967;28;20198;-82
2021/09/24 01:03:49;;;;;;;2.22;0.95;;;;;21.60;101535.00;;;;5053298;28;20195;-82
2021/09/24 01:06:17;;;;;;;3.60;0.88;;;;;21.60;101541.00;;;;5050560;28;20219;-83
2021/09/24 01:08:46;;;;;;;2.42;0.90;;;;;21.50;101537.00;;;;5049479;28;20199;-83
2021/09/24 01:11:13;;;;;;;1.83;0.77;;;;;21.50;101531.00;;;;5050386;28;20210;-82
2021/09/24 01:13:40;;;;;;;1.95;0.70;;;;;21.50;101536.00;;;;5058463;28;20203;-82
2021/09/24 01:16:09;;;;;;;2.03;0.60;;;;;21.50;101535.00;;;;5049376;28;20198;-83
2021/09/24 01:18:36;;;;;;;3.05;0.90;;;;;21.50;101535.00;;;;5048932;28;20206;-82
2021/09/24 01:21:09;;;;;;;1.27;0.60;;;;;21.50;101529.00;;;;5049811;28;20196;-83
2021/09/24 01:23:36;;;;;;;2.78;1.05;;;;;21.50;101535.00;;;;5048687;28;20199;-82
2021/09/24 01:26:04;;;;;;;1.77;0.75;;;;;21.50;101539.00;;;;5049740;28;20555;-82
2021/09/24 01:28:31;;;;;;;5.70;0.77;;;;;21.60;101527.00;;;;5048464;28;20199;-82
2021/09/24 01:30:58;;;;;;;2.22;1.20;;;;;21.60;101528.00;;;;5049284;28;20200;-82
2021/09/24 01:33:26;;;;;;;2.22;0.70;;;;;21.60;101517.00;;;;5049337;28;20214;-82
2021/09/24 01:35:53;;;;;;;2.33;0.80;;;;;21.60;101519.00;;;;5055377;28;20227;-82
2021/09/24 01:38:22;;;;;;;2.45;0.95;;;;;21.60;101520.00;;;;5060065;28;20238;-82
2021/09/24 01:40:49;;;;;;;2.28;0.88;;;;;21.60;101516.00;;;;5060267;28;20234;-83
2021/09/24 01:43:17;;;;;;;1.65;0.70;;;;;21.60;101514.00;;;;5056776;28;20204;-82
2021/09/24 01:45:44;;;;;;;3.58;1.55;;;;;21.60;101514.00;;;;5049191;28;20250;-82
2021/09/24 01:48:11;;;;;;;2.03;0.80;;;;;21.60;101510.00;;;;5048685;28;20203;-82
2021/09/24 01:50:38;;;;;;;3.28;1.00;;;;;21.60;101511.00;;;;5048981;28;20195;-83
2021/09/24 01:53:06;;;;;;;3.10;1.30;;;;;21.60;101506.00;;;;5049379;28;20191;-82
2021/09/24 01:55:34;;;;;;;3.35;1.00;;;;;21.60;101509.00;;;;5048700;28;20227;-82
2021/09/24 01:58:02;;;;;;;1.60;0.80;;;;;21.60;101507.00;;;;5049167;28;20204;-82
2021/09/24 02:00:29;;;;;;;1.75;0.93;;;;;21.60;101501.00;;;;5064393;28;20199;-82
2021/09/24 02:02:56;;;;;;;3.47;1.20;;;;;21.60;101499.00;;;;5060073;28;20195;-82
2021/09/24 02:05:24;;;;;;;2.97;1.20;;;;;21.60;101500.00;;;;5049530;28;20203;-82
2021/09/24 02:07:51;;;;;;;4.85;1.35;;;;;21.60;101494.00;;;;5048646;28;20199;-82
2021/09/24 02:10:18;;;;;;;2.38;1.15;;;;;21.60;101493.00;;;;5048681;28;20195;-82
2021/09/24 02:12:47;;;;;;;2.35;1.00;;;;;21.60;101494.00;;;;5047973;28;20204;-82
2021/09/24 02:15:15;;;;;;;4.00;1.23;;;;;21.60;101489.00;;;;5047561;28;20219;-82
2021/09/24 02:17:43;;;;;;;7.07;1.23;;;;;21.60;101491.00;;;;5050819;28;20199;-82
2021/09/24 02:20:11;;;;;;;1.50;0.98;;;;;21.60;101489.00;;;;5048261;28;20207;-82
2021/09/24 02:22:39;;;;;;;3.33;1.10;;;;;21.70;101491.00;;;;5048794;28;20199;-82
2021/09/24 02:25:07;;;;;;;3.13;1.13;;;;;21.70;101484.00;;;;5052237;28;20199;-82
2021/09/24 02:27:35;;;;;;;2.08;1.10;;;;;21.70;101483.00;;;;5048461;28;20961;-82
2021/09/24 02:30:04;;;;;;;2.42;1.08;;;;;21.70;101488.00;;;;5049717;28;20206;-82
2021/09/24 02:32:31;;;;;;;4.72;1.42;;;;;21.70;101483.00;;;;5048403;28;20569;-82
2021/09/24 02:34:58;;;;;;;3.83;1.65;;;;;21.70;101481.00;;;;5048535;28;20219;-82
2021/09/24 02:37:25;;;;;;;1.85;1.45;;;;;21.70;101480.00;;;;5048037;28;20218;-82
2021/09/24 02:39:53;;;;;;;2.65;1.50;;;;;21.70;101479.00;;;;5047420;28;20200;-82
2021/09/24 02:42:20;;;;;;;2.03;1.02;;;;;21.70;101480.00;;;;5047561;28;20219;-82
2021/09/24 02:44:47;;;;;;;5.10;1.50;;;;;21.70;101489.00;;;;5047855;28;21129;-83
2021/09/24 02:47:16;;;;;;;2.28;1.13;;;;;21.70;101482.00;;;;5047115;28;20715;-82
2021/09/24 02:49:46;;;;;;;3.92;1.45;;;;;21.70;101474.00;;;;5050443;28;20200;-82
2021/09/24 02:52:14;;;;;;;2.22;1.00;;;;;21.70;101482.00;;;;5048139;28;20688;-83
2021/09/24 02:54:41;;;;;;;2.35;1.40;;;;;21.70;101482.00;;;;5047439;28;20226;-83
2021/09/24 02:57:08;;;;;;;4.43;1.50;;;;;21.70;101480.00;;;;5051016;28;20305;-83
2021/09/24 02:59:36;;;;;;;3.78;1.45;;;;;21.80;101478.00;;;;5050984;28;20206;-83
2021/09/24 03:02:03;;;;;;;3.13;1.52;;;;;21.70;101476.00;;;;5055539;28;20194;-83
2021/09/24 03:04:32;;;;;;;2.65;1.30;;;;;21.70;101482.00;;;;5048205;28;20210;-83
2021/09/24 03:06:59;;;;;;;3.20;1.60;;;;;21.70;101470.00;;;;5052067;28;20218;-83
2021/09/24 03:09:26;;;;;;;2.17;1.50;;;;;21.70;101465.00;;;;5048200;28;20203;-82
2021/09/24 03:11:53;;;;;;;2.03;1.45;;;;;21.70;101466.00;;;;5065094;28;20213;-83
2021/09/24 03:14:21;;;;;;;2.10;1.60;;;;;21.70;101461.00;;;;5053355;28;20211;-83
2021/09/24 03:16:48;;;;;;;5.05;2.08;;;;;21.70;101466.00;;;;5051518;28;20669;-83
2021/09/24 03:19:19;;;;;;;2.58;1.60;;;;;21.70;101472.00;;;;5047806;28;20196;-82
2021/09/24 03:21:48;;;;;;;4.97;2.00;;;;;21.60;101470.00;;;;5058657;28;20249;-83
2021/09/24 03:24:15;;;;;;;2.25;1.63;;;;;21.60;101463.00;;;;5061241;28;20539;-82
2021/09/24 03:26:43;;;;;;;4.55;1.85;;;;;21.60;101470.00;;;;5048915;28;20384;-82
2021/09/24 03:29:11;;;;;;;3.22;1.88;;;;;21.60;101463.00;;;;5059544;28;20207;-82
2021/09/24 03:31:38;;;;;;;2.85;1.70;;;;;21.60;101467.00;;;;5069943;28;20206;-82
2021/09/24 03:34:06;;;;;;;3.40;1.67;;;;;21.50;101460.00;;;;5062505;28;20207;-82
2021/09/24 03:36:34;;;;;;;3.50;1.80;;;;;21.50;101461.00;;;;5054147;28;20231;-82
2021/09/24 03:39:05;;;;;;;8.25;2.20;;;;;21.50;101464.00;;;;5052904;28;20250;-82
2021/09/24 03:41:32;;;;;;;4.55;2.97;;;;;21.40;101470.00;;;;5062848;28;20215;-83
2021/09/24 03:43:59;;;;;;;4.60;2.83;;;;;21.40;101469.00;;;;5051359;28;20192;-82
2021/09/24 03:46:26;;;;;;;6.25;3.47;;;;;21.40;101468.00;;;;5050824;28;20200;-83
2021/09/24 03:48:53;;;;;;;4.20;3.35;;;;;21.40;101473.00;;;;5052774;28;20207;-83
2021/09/24 03:51:21;;;;;;;7.95;5.25;;;;;21.40;101459.00;;;;5058221;28;20203;-83
2021/09/24 03:53:48;;;;;;;9.30;4.25;;;;;21.40;101457.00;;;;5051583;28;20196;-82
2021/09/24 03:56:17;;;;;;;8.60;5.07;;;;;21.30;101470.00;;;;5056963;28;20223;-83
2021/09/24 03:58:44;;;;;;;7.40;5.50;;;;;21.30;101463.00;;;;5052088;28;20203;-83
2021/09/24 04:01:12;;;;;;;7.70;5.85;;;;;21.40;101465.00;;;;5051224;28;20685;-83
2021/09/24 04:03:39;;;;;;;7.20;5.10;;;;;21.30;101473.00;;;;5050365;28;20203;-83
2021/09/24 04:06:06;;;;;;;8.23;5.93;;;;;21.30;101466.00;;;;5049924;28;20214;-83
2021/09/24 04:08:33;;;;;;;10.98;6.85;;;;;21.40;101475.00;;;;5050431;28;20215;-82
2021/09/24 04:11:01;;;;;;;9.20;7.05;;;;;21.30;101471.00;;;;5050182;28;20203;-82
2021/09/24 04:13:29;;;;;;;17.02;8.43;;;;;21.30;101466.00;;;;5050586;28;20207;-82
2021/09/24 04:15:57;;;;;;;14.30;8.32;;;;;21.40;101465.00;;;;5051966;28;20223;-83
2021/09/24 04:18:24;;;;;;;13.90;9.45;;;;;21.40;101468.00;;;;5061924;28;20195;-83
2021/09/24 04:20:51;;;;;;;13.30;9.13;;;;;21.40;101477.00;;;;5051583;28;20192;-83
2021/09/24 04:23:19;;;;;;;20.27;10.00;;;;;21.40;101478.00;;;;5069460;28;20195;-83
2021/09/24 04:25:46;;;;;;;18.70;10.70;;;;;21.40;101469.00;;;;5055408;28;20207;-83
2021/09/24 04:28:13;;;;;;;24.50;11.27;;;;;21.40;101465.00;;;;5050941;28;20195;-83
2021/09/24 04:30:42;;;;;;;19.35;10.88;;;;;21.40;101466.00;;;;5051860;28;20192;-83
2021/09/24 04:33:09;;;;;;;24.20;12.32;;;;;21.50;101468.00;;;;5053936;28;20196;-82
2021/09/24 04:35:37;;;;;;;19.33;11.50;;;;;21.50;101475.00;;;;5057940;28;20589;-82
2021/09/24 04:38:05;;;;;;;23.83;12.70;;;;;21.50;101461.00;;;;5051165;28;20394;-83
2021/09/24 04:40:32;;;;;;;15.50;10.57;;;;;21.50;101452.00;;;;5050538;28;20211;-83
2021/09/24 04:43:00;;;;;;;23.55;11.98;;;;;21.50;101456.00;;;;5065961;28;20203;-83
2021/09/24 04:45:28;;;;;;;21.73;11.82;;;;;21.50;101455.00;;;;5054342;28;20200;-83
2021/09/24 04:47:57;;;;;;;19.25;12.20;;;;;21.60;101453.00;;;;5050275;28;20320;-83
2021/09/24 04:50:24;;;;;;;21.02;12.70;;;;;21.60;101456.00;;;;5050716;28;20196;-83
2021/09/24 04:52:52;;;;;;;20.40;11.60;;;;;21.60;101461.00;;;;5050228;28;20393;-83
2021/09/24 04:55:19;;;;;;;20.27;11.88;;;;;21.60;101458.00;;;;5054132;28;20230;-83
2021/09/24 04:57:46;;;;;;;18.85;11.15;;;;;21.70;101468.00;;;;5068940;28;20210;-83
2021/09/24 05:00:15;;;;;;;31.15;18.13;;;;;21.60;101466.00;;;;5064792;28;20955;-82
2021/09/24 05:02:42;;;;;;;24.73;13.38;;;;;21.70;101455.00;;;;5050266;28;20200;-82
2021/09/24 05:05:11;;;;;;;26.98;12.73;;;;;21.70;101456.00;;;;5049608;28;20212;-82
2021/09/24 05:07:39;;;;;;;20.42;11.65;;;;;21.70;101459.00;;;;5056353;28;20191;-82
2021/09/24 05:10:07;;;;;;;19.42;12.65;;;;;21.70;101456.00;;;;5067064;28;20264;-82
2021/09/24 05:12:34;;;;;;;22.83;13.50;;;;;21.70;101443.00;;;;5052494;28;20195;-82
2021/09/24 05:15:02;;;;;;;18.52;11.52;;;;;21.80;101458.00;;;;5061581;28;20665;-82
2021/09/24 05:17:29;;;;;;;35.22;13.52;;;;;21.80;101442.00;;;;5052973;28;20207;-82
2021/09/24 05:19:57;;;;;;;22.38;14.05;;;;;21.80;101451.00;;;;5052777;28;20207;-81
2021/09/24 05:22:26;;;;;;;20.77;11.88;;;;;21.80;101446.00;;;;5046997;28;20199;-80
2021/09/24 05:24:53;;;;;;;24.33;14.02;;;;;21.80;101440.00;;;;5061308;28;20223;-81
2021/09/24 05:27:21;;;;;;;27.63;14.77;;;;;21.80;101445.00;;;;5058575;28;20274;-81
2021/09/24 05:29:48;;;;;;;23.52;13.43;;;;;21.90;101432.00;;;;5053777;28;20203;-81
2021/09/24 05:32:17;;;;;;;24.98;14.00;;;;;21.90;101435.00;;;;5054179;28;20570;-82
2021/09/24 05:34:44;;;;;;;23.65;14.35;;;;;21.90;101431.00;;;;5068946;28;20687;-82
2021/09/24 05:37:11;;;;;;;23.38;14.18;;;;;21.90;101434.00;;;;5053522;28;20230;-80
2021/09/24 05:39:42;;;;;;;26.42;13.20;;;;;21.90;101435.00;;;;5049551;28;20210;-80
2021/09/24 05:42:10;;;;;;;24.17;12.95;;;;;21.90;101433.00;;;;5052608;28;20219;-80
2021/09/24 05:44:37;;;;;;;26.33;13.25;;;;;22.00;101436.00;;;;5057544;28;20206;-80
2021/09/24 05:47:04;;;;;;;25.73;13.32;;;;;22.00;101435.00;;;;5060990;28;20207;-80
2021/09/24 05:49:32;;;;;;;25.45;13.85;;;;;22.00;101432.00;;;;5051764;28;20192;-85
2021/09/24 05:52:01;;;;;;;23.55;13.57;;;;;22.00;101434.00;;;;5050540;28;20188;-84
2021/09/24 05:54:28;;;;;;;24.77;14.65;;;;;22.10;101432.00;;;;5047934;28;20195;-83
2021/09/24 05:56:57;;;;;;;18.00;12.20;;;;;22.10;101437.00;;;;5049346;28;20227;-82
2021/09/24 05:59:24;;;;;;;23.92;13.35;;;;;22.10;101435.00;;;;5048706;28;20204;-84
2021/09/24 06:01:52;;;;;;;24.65;13.85;;;;;22.20;101438.00;;;;5060534;28;20202;-83
2021/09/24 06:04:19;;;;;;;28.25;15.00;;;;;22.20;101441.00;;;;5054329;28;20199;-82
2021/09/24 06:06:47;;;;;;;20.40;12.00;;;;;22.20;101444.00;;;;5066169;28;20186;-83
2021/09/24 06:09:15;;;;;;;19.20;11.55;;;;;22.20;101444.00;;;;5063054;28;20199;-82
2021/09/24 06:11:42;;;;;;;20.90;13.50;;;;;22.20;101449.00;;;;5069437;28;20710;-82
2021/09/24 06:14:11;;;;;;;24.40;13.65;;;;;22.30;101453.00;;;;5069291;28;20211;-82
2021/09/24 06:16:39;;;;;;;23.92;13.35;;;;;22.30;101451.00;;;;5068807;28;20258;-82
2021/09/24 06:19:06;;;;;;;22.52;13.18;;;;;22.30;101446.00;;;;5056076;28;20261;-83
2021/09/24 06:21:35;;;;;;;25.52;13.23;;;;;22.30;101451.00;;;;5056365;28;20198;-82
2021/09/24 06:24:02;;;;;;;22.42;11.68;;;;;22.40;101442.00;;;;5068926;28;20274;-82
2021/09/24 06:26:29;;;;;;;24.88;13.05;;;;;22.40;101446.00;;;;5068671;28;20206;-81
2021/09/24 06:28:57;;;;;;;33.17;13.88;;;;;22.40;101447.00;;;;5068390;28;20750;-82
2021/09/24 06:31:25;;;;;;;22.60;13.73;;;;;22.50;101452.00;;;;5068417;28;20205;-82
2021/09/24 06:33:52;;;;;;;23.02;12.20;;;;;22.50;101444.00;;;;5067862;28;20206;-83
2021/09/24 06:36:21;;;;;;;25.27;14.45;;;;;22.50;101447.00;;;;5068726;28;20230;-82
2021/09/24 06:38:48;;;;;;;21.35;13.27;;;;;22.50;101453.00;;;;5050520;28;20231;-82
2021/09/24 06:41:16;;;;;;;17.73;12.10;;;;;22.60;101451.00;;;;5047767;28;20664;-82
2021/09/24 06:43:43;;;;;;;22.15;12.63;;;;;22.60;101456.00;;;;5048789;28;20202;-83
2021/09/24 06:46:11;;;;;;;25.92;13.50;;;;;22.60;101457.00;;;;5047709;28;20211;-82
2021/09/24 06:48:39;;;;;;;26.17;13.98;;;;;22.60;101453.00;;;;5048722;28;20226;-82
2021/09/24 06:51:08;;;;;;;22.15;13.43;;;;;22.70;101454.00;;;;5048353;28;20760;-83
2021/09/24 06:53:35;;;;;;;28.02;13.30;;;;;22.70;101458.00;;;;5048313;28;20196;-83
2021/09/24 06:56:03;;;;;;;19.40;13.32;;;;;22.70;101456.00;;;;5068465;28;20234;-83
2021/09/24 06:58:30;;;;;;;20.85;12.15;;;;;22.70;101454.00;;;;5068087;28;20199;-83
2021/09/24 07:00:57;;;;;;;19.63;12.23;;;;;22.80;101453.00;;;;5068450;28;20211;-83
2021/09/24 07:03:24;;;;;;;21.83;13.32;;;;;22.80;101456.00;;;;5068562;28;20664;-83
2021/09/24 07:05:53;;;;;;;20.92;12.77;;;;;22.80;101457.00;;;;5070075;28;20209;-83
2021/09/24 07:08:20;;;;;;;17.92;12.05;;;;;22.80;101453.00;;;;5072830;28;20229;-83
2021/09/24 07:10:47;;;;;;;18.08;11.57;;;;;22.90;101453.00;;;;5058301;28;20606;-83
2021/09/24 07:13:15;;;;;;;17.35;11.23;;;;;22.90;101451.00;;;;5052248;28;20207;-83
2021/09/24 07:15:43;;;;;;;17.88;10.73;;;;;22.90;101456.00;;;;5052279;28;20200;-83
2021/09/24 07:18:11;;;;;;;15.68;10.38;;;;;22.90;101455.00;;;;5051912;28;20206;-84
2021/09/24 07:20:38;;;;;;;16.23;10.68;;;;;22.90;101452.00;;;;5051576;28;20218;-84
2021/09/24 07:23:07;;;;;;;20.45;11.55;;;;;22.90;101450.00;;;;5064166;28;20206;-84
2021/09/24 07:25:34;;;;;;;14.00;9.98;;;;;23.00;101457.00;;;;5052138;28;20298;-83
2021/09/24 07:28:02;;;;;;;15.90;11.13;;;;;23.00;101451.00;;;;5055205;28;20202;-83
2021/09/24 07:30:29;;;;;;;18.73;10.55;;;;;23.00;101456.00;;;;5072706;28;20275;-83
2021/09/24 07:32:56;;;;;;;14.50;10.48;;;;;23.00;101457.00;;;;5071632;28;20233;-84
2021/09/24 07:35:23;;;;;;;18.58;11.15;;;;;23.00;101451.00;;;;5072220;28;20203;-83
2021/09/24 07:37:51;;;;;;;16.92;10.55;;;;;23.10;101460.00;;;;5071485;28;20692;-83
2021/09/24 07:40:19;;;;;;;16.02;10.43;;;;;23.10;101464.00;;;;5069417;28;20206;-84
2021/09/24 07:42:46;;;;;;;15.40;9.80;;;;;23.10;101466.00;;;;5051558;28;20656;-82
2021/09/24 07:45:14;;;;;;;18.00;9.70;;;;;23.10;101474.00;;;;5054618;28;20194;-82
2021/09/24 07:47:41;;;;;;;13.02;9.15;;;;;23.10;101469.00;;;;5061043;28;20203;-82
2021/09/24 07:50:09;;;;;;;13.88;9.30;;;;;23.10;101472.00;;;;5066298;28;20214;-82
2021/09/24 07:52:36;;;;;;;18.20;11.40;;;;;23.10;101466.00;;;;5071746;28;20248;-82
2021/09/24 07:55:04;;;;;;;15.45;9.93;;;;;23.10;101472.00;;;;5060001;28;20203;-83
2021/09/24 07:57:33;;;;;;;12.57;8.65;;;;;23.10;101469.00;;;;5051158;28;20219;-84
2021/09/24 08:00:01;;;;;;;14.15;10.25;;;;;23.20;101465.00;;;;5057570;28;20576;-84
2021/09/24 08:02:28;;;;;;;17.67;10.15;;;;;23.20;101466.00;;;;5061584;28;20195;-86
2021/09/24 08:04:57;;;;;;;15.65;9.48;;;;;23.20;101469.00;;;;5057924;28;20207;-86
2021/09/24 08:07:24;;;;;;;14.50;9.48;;;;;23.30;101470.00;;;;5059472;28;20688;-85
2021/09/24 08:09:52;;;;;;;12.15;8.65;;;;;23.30;101473.00;;;;5053340;28;20191;-85
2021/09/24 08:12:19;;;;;;;14.13;9.98;;;;;23.30;101468.00;;;;5062466;28;20198;-83
2021/09/24 08:14:48;;;;;;;15.88;9.45;;;;;23.30;101470.00;;;;5052414;28;20200;-85
2021/09/24 08:17:15;;;;;;;12.43;9.50;;;;;23.40;101466.00;;;;5068194;28;20219;-85
2021/09/24 08:19:42;;;;;;;12.25;9.60;;;;;23.40;101471.00;;;;5062262;28;20199;-84
2021/09/24 08:22:09;;;;;;;13.23;9.27;;;;;23.40;101466.00;;;;5051792;28;20203;-85
2021/09/24 08:24:37;;;;;;;13.98;9.50;;;;;23.50;101466.00;;;;5050771;28;20195;-84
2021/09/24 08:27:05;;;;;;;13.88;9.18;;;;;23.50;101474.00;;;;5054557;28;20210;-83
2021/09/24 08:29:32;;;;;;;14.05;9.75;;;;;23.60;101467.00;;;;5068667;28;20209;-84
2021/09/24 08:32:02;;;;;;;13.77;7.88;;;;;23.60;101472.00;;;;5051205;28;20200;-84
2021/09/24 08:34:29;;;;;;;15.88;8.90;;;;;23.70;101472.00;;;;5061183;28;20281;-85
2021/09/24 08:36:56;;;;;;;11.75;7.50;;;;;23.70;101472.00;;;;5059250;28;21125;-85
2021/09/24 08:39:24;;;;;;;13.60;8.13;;;;;23.70;101482.00;;;;5050184;28;20212;-85
2021/09/24 08:41:51;;;;;;;11.75;8.15;;;;;23.80;101480.00;;;;5051288;28;20224;-84
2021/09/24 08:44:21;;;;;;;11.57;8.82;;;;;23.80;101487.00;;;;5059801;28;20195;-85
2021/09/24 08:46:50;;;;;;;11.20;8.75;;;;;23.80;101484.00;;;;5070908;28;20199;-84
2021/09/24 08:49:21;;;;;;;9.63;7.78;;;;;23.90;101483.00;;;;5060006;28;20204;-84
2021/09/24 08:51:49;;;;;;;10.32;8.13;;;;;23.90;101482.00;;;;5049873;28;20218;-85
2021/09/24 08:54:16;;;;;;;9.90;8.55;;;;;24.00;101486.00;;;;5062907;28;20195;-84
2021/09/24 08:56:44;;;;;;;10.50;7.63;;;;;24.00;101483.00;;;;5050788;28;20716;-84
2021/09/24 08:59:11;;;;;;;10.48;7.90;;;;;24.00;101480.00;;;;5061269;28;20210;-84
2021/09/24 09:01:59;;;;;;;11.00;7.85;;;;;23.90;101482.00;;;;5069903;28;20209;-84
2021/09/24 09:04:36;;;;;;;9.10;7.43;;;;;24.00;101476.00;;;;5059052;28;20245;-84
2021/09/24 09:07:05;;;;;;;10.25;8.13;;;;;24.10;101475.00;;;;5069874;28;20198;-83
2021/09/24 09:09:34;;;;;;;8.98;6.85;;;;;24.10;101473.00;;;;5060297;28;20196;-83
2021/09/24 09:12:11;;;;;;;9.35;8.25;;;;;24.10;101475.00;;;;5051786;28;20227;-83
2021/09/24 09:14:39;;;;;;;9.27;6.72;;;;;24.20;101468.00;;;;5058428;28;20273;-82
2021/09/24 09:17:28;;;;;;;8.77;7.47;;;;;24.10;101468.00;;;;5061185;28;20215;-82
2021/09/24 09:20:17;;;;;;;8.10;6.95;;;;;24.10;101472.00;;;;5066856;28;20200;-84
2021/09/24 09:22:46;;;;;;;11.60;6.15;;;;;24.30;101464.00;;;;5065313;28;20205;-83
2021/09/24 09:25:24;;;;;;;7.53;6.72;;;;;24.30;101461.00;;;;5064314;28;20194;-83
2021/09/24 09:27:52;;;;;;;7.85;6.05;;;;;24.40;101474.00;;;;5064185;28;20286;-83
2021/09/24 09:30:20;;;;;;;7.18;6.40;;;;;24.40;101465.00;;;;5052668;28;20199;-83
2021/09/24 09:33:05;;;;;;;8.85;6.30;;;;;24.30;101464.00;;;;5050661;28;20290;-82
2021/09/24 09:35:38;;;;;;;8.23;6.35;;;;;24.50;101457.00;;;;5051894;28;20195;-82
2021/09/24 09:38:06;;;;;;;8.77;5.57;;;;;24.50;101459.00;;;;5057393;28;20223;-82
2021/09/24 09:40:34;;;;;;;8.52;7.20;;;;;24.60;101456.00;;;;5049699;28;20306;-83
2021/09/24 09:43:01;;;;;;;8.10;6.15;;;;;24.60;101453.00;;;;5068328;28;20210;-81
2021/09/24 09:45:29;;;;;;;6.85;5.45;;;;;24.70;101455.00;;;;5055318;28;20195;-83
2021/09/24 09:47:56;;;;;;;7.15;5.57;;;;;24.70;101457.00;;;;5049426;28;20208;-82
2021/09/24 09:50:25;;;;;;;6.60;6.00;;;;;24.80;101456.00;;;;5049763;28;20192;-83
2021/09/24 09:53:04;;;;;;;7.10;5.93;;;;;24.70;101454.00;;;;5068801;28;20256;-83
2021/09/24 09:55:33;;;;;;;8.93;5.60;;;;;24.90;101458.00;;;;5068305;28;20281;-84
2021/09/24 09:58:03;;;;;;;8.02;5.88;;;;;24.90;101455.00;;;;5069093;28;20255;-82
2021/09/24 10:00:33;;;;;;;8.27;6.57;;;;;25.00;101447.00;;;;5056056;28;20196;-83
2021/09/24 10:03:07;;;;;;;10.18;6.53;;;;;25.10;101447.00;;;;5067945;28;20206;-83
2021/09/24 10:05:36;;;;;;;8.02;6.22;;;;;25.20;101455.00;;;;5061616;28;20223;-81
2021/09/24 10:08:22;;;;;;;9.60;6.55;;;;;25.20;101445.00;;;;5054483;28;20199;-82
2021/09/24 10:11:05;;;;;;;8.65;5.45;;;;;25.30;101439.00;;;;5062694;28;20237;-82
2021/09/24 10:13:35;;;;;;;9.55;5.97;;;;;25.50;101441.00;;;;5064538;28;20202;-81
2021/09/24 10:16:04;;;;;;;7.57;5.93;;;;;25.60;101434.00;;;;5048980;28;20203;-82
2021/09/24 10:18:33;;;;;;;5.90;5.28;;;;;25.80;101434.00;;;;5048791;28;20574;-82
2021/09/24 10:21:00;;;;;;;7.18;5.35;;;;;25.80;101433.00;;;;5066367;28;20199;-82
2021/09/24 10:23:28;;;;;;;7.55;5.93;;;;;25.90;101444.00;;;;5059614;28;20202;-82
2021/09/24 10:26:00;;;;;;;8.05;5.95;;;;;25.90;101430.00;;;;5052102;28;20203;-83
2021/09/24 10:28:34;;;;;;;6.80;5.10;;;;;26.00;101433.00;;;;5048336;28;20222;-83
2021/09/24 10:31:03;;;;;;;7.88;6.53;;;;;26.00;101429.00;;;;5060103;28;20206;-83
2021/09/24 10:33:51;;;;;;;7.70;6.43;;;;;25.90;101435.00;;;;5068185;28;20195;-82
2021/09/24 10:36:47;;;;;;;4.97;4.32;;;;;26.00;101430.00;;;;5053821;28;20200;-84
2021/09/24 10:39:35;;;;;;;7.47;5.07;;;;;26.00;101426.00;;;;5049221;28;21090;-82
2021/09/24 10:42:28;;;;;;;6.30;4.50;;;;;26.00;101430.00;;;;5048768;28;20600;-83
2021/09/24 10:45:14;;;;;;;5.07;4.25;;;;;26.10;101428.00;;;;5064757;28;20198;-83
2021/09/24 10:47:54;;;;;;;6.82;4.82;;;;;26.20;101421.00;;;;5068009;28;20294;-83
2021/09/24 10:51:02;;;;;;;7.03;4.93;;;;;26.30;101427.00;;;;5068177;28;20575;-84
2021/09/24 10:53:50;;;;;;;6.22;4.28;;;;;26.30;101430.00;;;;5051913;28;20215;-84
2021/09/24 10:56:34;;;;;;;6.55;4.65;;;;;26.30;101429.00;;;;5047964;28;20195;-84
2021/09/24 10:59:21;;;;;;;4.95;4.45;;;;;26.30;101430.00;;;;5048161;28;20218;-84
2021/09/24 11:01:48;;;;;;;5.55;4.35;;;;;26.30;101430.00;;;;5047959;28;20245;-83
2021/09/24 11:04:15;;;;;;;6.35;4.93;;;;;26.30;101434.00;;;;5049060;28;20203;-84
2021/09/24 11:06:46;;;;;;;7.70;4.75;;;;;26.30;101426.00;;;;5049129;28;20230;-83
2021/09/24 11:09:15;;;;;;;4.95;4.18;;;;;26.30;101436.00;;;;5052871;28;20616;-84
2021/09/24 11:11:46;;;;;;;8.05;6.07;;;;;26.20;101423.00;;;;5048338;28;20211;-84
2021/09/24 11:14:28;;;;;;;6.35;4.60;;;;;26.10;101416.00;;;;5048297;28;20207;-85
2021/09/24 11:16:56;;;;;;;5.95;5.00;;;;;26.20;101419.00;;;;5048129;28;20203;-83
2021/09/24 11:19:46;;;;;;;5.22;4.72;;;;;26.10;101406.00;;;;5047577;28;20196;-84
2021/09/24 11:22:24;;;;;;;6.15;5.32;;;;;26.10;101412.00;;;;5055978;28;20195;-83
2021/09/24 11:25:08;;;;;;;7.18;5.53;;;;;26.10;101402.00;;;;5068193;28;20209;-84
2021/09/24 11:27:41;;;;;;;7.00;5.63;;;;;26.10;101397.00;;;;5052311;28;20214;-84
2021/09/24 11:30:23;;;;;;;5.43;4.90;;;;;26.20;101404.00;;;;5067680;28;20203;-84
2021/09/24 11:32:53;;;;;;;7.57;6.00;;;;;26.30;101408.00;;;;5067491;28;20639;-84
2021/09/24 11:35:29;;;;;;;6.47;5.50;;;;;26.40;101392.00;;;;5067518;28;20669;-83
2021/09/24 11:38:05;;;;;;;9.18;5.57;;;;;26.40;101389.00;;;;5062029;28;20341;-82
2021/09/24 11:40:34;;;;;;;5.68;5.03;;;;;26.50;101397.00;;;;5055166;28;20235;-81
2021/09/24 11:43:04;;;;;;;5.50;4.80;;;;;26.60;101394.00;;;;5054669;28;20223;-81
2021/09/24 11:45:33;;;;;;;5.82;5.22;;;;;26.70;101406.00;;;;5056677;28;20188;-81
2021/09/24 11:48:03;;;;;;;5.25;4.43;;;;;26.80;101405.00;;;;5046913;28;20235;-80
2021/09/24 11:50:31;;;;;;;5.63;5.05;;;;;26.80;101399.00;;;;5050298;28;20194;-82
2021/09/24 11:53:00;;;;;;;5.65;5.15;;;;;26.80;101401.00;;;;5055398;28;20253;-79
2021/09/24 11:55:30;;;;;;;12.40;5.15;;;;;26.80;101396.00;;;;5055623;28;20195;-79
2021/09/24 11:58:02;;;;;;;4.93;4.32;;;;;26.80;101394.00;;;;5053931;28;20238;-79
2021/09/24 12:00:32;;;;;;;6.82;5.60;;;;;26.90;101386.00;;;;5065513;28;20204;-78
2021/09/24 12:03:15;;;;;;;7.10;6.13;;;;;26.80;101393.00;;;;5051619;28;20204;-80
2021/09/24 12:05:51;;;;;;;7.82;5.32;;;;;26.90;101389.00;;;;5050642;28;20219;-78
2021/09/24 12:08:20;;;;;;;5.03;4.53;;;;;26.90;101400.00;;;;5050617;28;20203;-79
2021/09/24 12:10:56;;;;;;;5.10;4.00;;;;;26.90;101391.00;;;;5051236;28;20198;-79
2021/09/24 12:13:42;;;;;;;5.03;4.53;;;;;26.70;101388.00;;;;5051142;28;20195;-79